createdAt,value
2022-10-04T00:05:42.331Z,10.22
2022-10-04T00:15:50.408Z,10.24
2022-10-04T00:25:55.593Z,10.23
2022-10-04T00:35:57.721Z,10.28
2022-10-04T00:46:05.951Z,10.23
2022-10-04T00:56:31.669Z,10.27
2022-10-04T01:06:36.499Z,10.16
2022-10-04T01:16:39.035Z,10.28
2022-10-04T01:26:43.872Z,10.21
2022-10-04T01:36:47.619Z,9.96
2022-10-04T01:46:52.620Z,9.81
2022-10-04T01:57:17.226Z,9.72
2022-10-04T02:07:20.702Z,9.83
2022-10-04T02:17:30.125Z,9.85
2022-10-04T02:27:32.453Z,9.89
2022-10-04T02:37:35.288Z,9.90
2022-10-04T02:47:45.840Z,10.01
2022-10-04T02:57:50.057Z,10.00
2022-10-04T03:07:53.357Z,10.11
2022-10-04T03:17:55.629Z,10.09
2022-10-04T03:28:02.174Z,10.06
2022-10-04T03:38:11.503Z,10.13
2022-10-04T03:48:18.175Z,10.11
2022-10-04T03:58:21.062Z,10.02
2022-10-04T04:08:23.753Z,10.04
2022-10-04T04:18:32.382Z,9.93
2022-10-04T04:28:42.262Z,9.78
2022-10-04T04:39:03.307Z,9.79
2022-10-04T04:49:05.983Z,9.52
2022-10-04T04:59:08.816Z,9.58
2022-10-04T05:09:24.628Z,9.72
2022-10-04T05:19:37.288Z,9.86
2022-10-04T05:29:46.863Z,9.88
2022-10-04T05:40:03.851Z,9.85
2022-10-04T05:50:06.216Z,9.94
2022-10-04T06:00:21.040Z,10.01
2022-10-04T06:10:45.440Z,10.15
2022-10-04T06:21:13.043Z,10.23
2022-10-04T06:31:46.773Z,10.26
2022-10-04T06:42:07.530Z,10.32
2022-10-04T06:52:25.482Z,10.59
2022-10-04T07:02:42.236Z,10.70
2022-10-04T07:12:53.998Z,10.55
2022-10-04T07:23:06.137Z,10.67
2022-10-04T07:33:14.084Z,10.97
2022-10-04T07:43:30.661Z,11.09
2022-10-04T07:53:55.683Z,10.96
2022-10-04T08:04:11.284Z,11.32
2022-10-04T08:14:44.371Z,11.19
2022-10-04T08:25:08.432Z,11.22
2022-10-04T08:35:29.430Z,11.24
2022-10-04T08:45:44.364Z,12.10
2022-10-04T08:55:49.790Z,12.34
2022-10-04T09:06:13.740Z,13.43
2022-10-04T09:16:22.381Z,13.48
2022-10-04T09:26:38.428Z,13.16
2022-10-04T09:36:46.655Z,13.54
2022-10-04T09:47:14.410Z,13.24
2022-10-04T09:57:58.466Z,13.09
2022-10-04T10:08:28.403Z,13.08
2022-10-04T10:18:59.422Z,13.45
2022-10-04T10:29:35.528Z,13.97
2022-10-04T10:40:02.388Z,14.09
2022-10-04T10:50:28.496Z,14.09
2022-10-04T11:00:51.858Z,14.04
2022-10-04T11:11:12.022Z,14.38
2022-10-04T11:21:29.128Z,14.93
2022-10-04T11:31:46.002Z,15.47
2022-10-04T11:41:57.175Z,14.94
2022-10-04T11:52:49.541Z,14.82
2022-10-04T12:03:18.892Z,15.40
2022-10-04T12:13:59.341Z,15.39
2022-10-04T12:24:27.150Z,16.38
2022-10-04T12:34:45.424Z,16.15
2022-10-04T12:44:57.219Z,15.84
2022-10-04T12:55:40.302Z,16.20
2022-10-04T13:06:03.082Z,15.66
2022-10-04T13:26:35.161Z,15.13
2022-10-04T13:36:46.370Z,15.75
2022-10-04T13:46:59.099Z,15.83
2022-10-04T13:57:18.274Z,15.07
2022-10-04T14:07:38.466Z,15.16
2022-10-04T14:17:46.415Z,15.11
2022-10-04T14:28:06.847Z,14.27
2022-10-04T14:38:14.896Z,13.96
2022-10-04T14:48:56.118Z,13.96
2022-10-04T14:59:35.615Z,13.76
2022-10-04T15:10:01.209Z,13.70
2022-10-04T15:20:03.430Z,13.41
2022-10-04T15:30:20.545Z,12.88
2022-10-04T15:40:34.933Z,12.14
2022-10-04T15:51:12.115Z,11.34
2022-10-04T16:01:27.409Z,10.57
2022-10-04T16:11:47.216Z,9.94
2022-10-04T16:22:17.531Z,9.41
2022-10-04T16:32:39.014Z,8.87
2022-10-04T16:42:49.738Z,8.47
2022-10-04T16:53:24.083Z,8.07
2022-10-04T17:03:35.235Z,7.77
2022-10-04T17:14:01.588Z,7.51
2022-10-04T17:24:30.275Z,7.25
2022-10-04T17:34:59.680Z,7.05
2022-10-04T17:45:25.424Z,6.85
2022-10-04T17:55:58.770Z,6.54
2022-10-04T18:06:26.902Z,6.26
2022-10-04T18:16:49.003Z,6.03
2022-10-04T18:27:05.115Z,5.84
2022-10-04T18:37:28.665Z,5.65
2022-10-04T18:47:39.622Z,5.49
2022-10-04T18:58:06.394Z,5.33
2022-10-04T19:08:39.798Z,5.15
2022-10-04T19:18:57.901Z,5.10
2022-10-04T19:29:26.135Z,4.95
2022-10-04T19:39:35.603Z,4.84
2022-10-04T19:49:44.180Z,4.83
2022-10-04T19:59:48.575Z,4.67
2022-10-04T20:10:15.558Z,4.51
2022-10-04T20:20:43.470Z,4.41
2022-10-04T20:40:40.497Z,4.28
2022-10-04T20:50:43.468Z,4.23
2022-10-04T21:00:57.429Z,4.33
2022-10-04T21:11:08.862Z,4.30
2022-10-04T21:21:14.748Z,4.24
2022-10-04T21:31:17.001Z,4.16
2022-10-04T21:41:19.078Z,4.13
2022-10-04T21:51:21.240Z,4.01
2022-10-04T22:01:23.721Z,3.91
2022-10-04T22:11:25.972Z,3.92
2022-10-04T22:21:28.118Z,3.90
2022-10-04T22:31:30.330Z,3.75
2022-10-04T22:41:36.052Z,3.52
2022-10-04T22:51:40.489Z,3.47
2022-10-04T23:01:43.805Z,3.44
2022-10-04T23:11:46.687Z,3.30
2022-10-04T23:21:50.025Z,3.25
2022-10-04T23:31:52.851Z,3.26
2022-10-04T23:41:56.947Z,3.30
2022-10-04T23:52:02.839Z,3.33
